sensor_id;sensor_type;location;lat;lon;timestamp;P1;durP1;ratioP1;P2;durP2;ratioP2
24787;SDS011;12883;52.662;5.196;2023-12-07T00:00:59;12.60;;;12.60;;
24787;SDS011;12883;52.662;5.196;2023-12-07T00:03:24;11.93;;;11.93;;
24787;SDS011;12883;52.662;5.196;2023-12-07T00:05:50;12.57;;;12.57;;
24787;SDS011;12883;52.662;5.196;2023-12-07T00:08:15;13.00;;;13.00;;
24787;SDS011;12883;52.662;5.196;2023-12-07T00:10:40;12.60;;;12.60;;
24787;SDS011;12883;52.662;5.196;2023-12-07T00:13:06;13.00;;;13.00;;
24787;SDS011;12883;52.662;5.196;2023-12-07T00:15:31;13.50;;;13.50;;
24787;SDS011;12883;52.662;5.196;2023-12-07T00:17:56;14.37;;;14.37;;
24787;SDS011;12883;52.662;5.196;2023-12-07T00:20:22;14.17;;;14.17;;
24787;SDS011;12883;52.662;5.196;2023-12-07T00:22:47;15.83;;;15.77;;
24787;SDS011;12883;52.662;5.196;2023-12-07T00:25:12;16.00;;;15.97;;
24787;SDS011;12883;52.662;5.196;2023-12-07T00:27:38;15.50;;;15.40;;
24787;SDS011;12883;52.662;5.196;2023-12-07T00:30:03;15.70;;;15.70;;
24787;SDS011;12883;52.662;5.196;2023-12-07T00:32:29;15.17;;;15.13;;
24787;SDS011;12883;52.662;5.196;2023-12-07T00:34:54;15.97;;;15.97;;
24787;SDS011;12883;52.662;5.196;2023-12-07T00:37:20;15.70;;;15.70;;
24787;SDS011;12883;52.662;5.196;2023-12-07T00:39:45;15.57;;;15.47;;
24787;SDS011;12883;52.662;5.196;2023-12-07T00:42:10;15.10;;;15.10;;
24787;SDS011;12883;52.662;5.196;2023-12-07T00:44:39;15.63;;;15.53;;
24787;SDS011;12883;52.662;5.196;2023-12-07T00:47:05;14.80;;;14.80;;
24787;SDS011;12883;52.662;5.196;2023-12-07T00:49:31;16.23;;;16.13;;
24787;SDS011;12883;52.662;5.196;2023-12-07T00:51:56;15.83;;;15.73;;
24787;SDS011;12883;52.662;5.196;2023-12-07T00:54:21;13.97;;;13.97;;
24787;SDS011;12883;52.662;5.196;2023-12-07T00:56:47;15.30;;;15.30;;
24787;SDS011;12883;52.662;5.196;2023-12-07T00:59:12;15.13;;;15.13;;
24787;SDS011;12883;52.662;5.196;2023-12-07T01:01:37;15.03;;;15.03;;
24787;SDS011;12883;52.662;5.196;2023-12-07T01:04:04;14.90;;;14.90;;
24787;SDS011;12883;52.662;5.196;2023-12-07T01:06:30;14.63;;;14.63;;
24787;SDS011;12883;52.662;5.196;2023-12-07T01:08:56;15.07;;;14.97;;
24787;SDS011;12883;52.662;5.196;2023-12-07T01:11:21;14.90;;;14.90;;
24787;SDS011;12883;52.662;5.196;2023-12-07T01:13:47;14.83;;;14.83;;
24787;SDS011;12883;52.662;5.196;2023-12-07T01:16:12;15.43;;;15.43;;
24787;SDS011;12883;52.662;5.196;2023-12-07T01:18:37;14.73;;;14.67;;
24787;SDS011;12883;52.662;5.196;2023-12-07T01:21:03;16.70;;;16.60;;
24787;SDS011;12883;52.662;5.196;2023-12-07T01:23:28;15.27;;;15.17;;
24787;SDS011;12883;52.662;5.196;2023-12-07T01:25:53;15.23;;;15.13;;
24787;SDS011;12883;52.662;5.196;2023-12-07T01:28:19;16.00;;;15.90;;
24787;SDS011;12883;52.662;5.196;2023-12-07T01:30:44;14.87;;;14.87;;
24787;SDS011;12883;52.662;5.196;2023-12-07T01:33:10;16.23;;;16.20;;
24787;SDS011;12883;52.662;5.196;2023-12-07T01:35:35;14.87;;;14.83;;
24787;SDS011;12883;52.662;5.196;2023-12-07T01:38:00;15.17;;;15.10;;
24787;SDS011;12883;52.662;5.196;2023-12-07T01:40:26;15.37;;;15.37;;
24787;SDS011;12883;52.662;5.196;2023-12-07T01:42:51;15.47;;;15.37;;
24787;SDS011;12883;52.662;5.196;2023-12-07T01:45:18;15.77;;;15.67;;
24787;SDS011;12883;52.662;5.196;2023-12-07T01:47:43;15.23;;;15.13;;
24787;SDS011;12883;52.662;5.196;2023-12-07T01:50:10;15.43;;;15.43;;
24787;SDS011;12883;52.662;5.196;2023-12-07T01:52:39;14.57;;;14.57;;
24787;SDS011;12883;52.662;5.196;2023-12-07T01:55:09;15.57;;;15.57;;
24787;SDS011;12883;52.662;5.196;2023-12-07T01:57:35;15.43;;;15.43;;
24787;SDS011;12883;52.662;5.196;2023-12-07T02:00:02;14.13;;;14.13;;
24787;SDS011;12883;52.662;5.196;2023-12-07T02:02:28;14.97;;;14.97;;
24787;SDS011;12883;52.662;5.196;2023-12-07T02:04:55;15.40;;;15.37;;
24787;SDS011;12883;52.662;5.196;2023-12-07T02:07:20;15.70;;;15.60;;
24787;SDS011;12883;52.662;5.196;2023-12-07T02:09:47;15.60;;;15.50;;
24787;SDS011;12883;52.662;5.196;2023-12-07T02:12:13;15.73;;;15.63;;
24787;SDS011;12883;52.662;5.196;2023-12-07T02:14:38;14.80;;;14.80;;
24787;SDS011;12883;52.662;5.196;2023-12-07T02:17:26;16.50;;;16.40;;
24787;SDS011;12883;52.662;5.196;2023-12-07T02:19:55;15.27;;;15.17;;
24787;SDS011;12883;52.662;5.196;2023-12-07T02:25:11;15.00;;;15.00;;
24787;SDS011;12883;52.662;5.196;2023-12-07T02:27:40;15.03;;;15.03;;
24787;SDS011;12883;52.662;5.196;2023-12-07T02:30:07;14.33;;;14.33;;
24787;SDS011;12883;52.662;5.196;2023-12-07T02:32:34;15.23;;;15.23;;
24787;SDS011;12883;52.662;5.196;2023-12-07T02:35:00;14.90;;;14.80;;
24787;SDS011;12883;52.662;5.196;2023-12-07T02:37:27;15.90;;;15.80;;
24787;SDS011;12883;52.662;5.196;2023-12-07T02:39:54;14.90;;;14.80;;
24787;SDS011;12883;52.662;5.196;2023-12-07T02:42:21;16.33;;;16.23;;
24787;SDS011;12883;52.662;5.196;2023-12-07T02:44:48;16.80;;;16.70;;
24787;SDS011;12883;52.662;5.196;2023-12-07T02:47:15;15.30;;;15.20;;
24787;SDS011;12883;52.662;5.196;2023-12-07T02:49:40;15.90;;;15.80;;
24787;SDS011;12883;52.662;5.196;2023-12-07T02:52:06;16.40;;;16.30;;
24787;SDS011;12883;52.662;5.196;2023-12-07T02:54:31;15.47;;;15.47;;
24787;SDS011;12883;52.662;5.196;2023-12-07T02:56:56;17.20;;;17.10;;
24787;SDS011;12883;52.662;5.196;2023-12-07T02:59:22;16.87;;;16.77;;
24787;SDS011;12883;52.662;5.196;2023-12-07T03:01:47;15.90;;;15.80;;
24787;SDS011;12883;52.662;5.196;2023-12-07T03:04:12;16.97;;;16.87;;
24787;SDS011;12883;52.662;5.196;2023-12-07T03:06:38;16.03;;;15.93;;
24787;SDS011;12883;52.662;5.196;2023-12-07T03:09:03;15.10;;;15.10;;
24787;SDS011;12883;52.662;5.196;2023-12-07T03:11:28;13.73;;;13.73;;
24787;SDS011;12883;52.662;5.196;2023-12-07T03:13:54;15.93;;;15.83;;
24787;SDS011;12883;52.662;5.196;2023-12-07T03:16:19;15.40;;;15.37;;
24787;SDS011;12883;52.662;5.196;2023-12-07T03:18:44;16.50;;;16.40;;
24787;SDS011;12883;52.662;5.196;2023-12-07T03:21:10;16.43;;;16.33;;
24787;SDS011;12883;52.662;5.196;2023-12-07T03:23:35;17.33;;;17.23;;
24787;SDS011;12883;52.662;5.196;2023-12-07T03:26:01;16.83;;;16.73;;
24787;SDS011;12883;52.662;5.196;2023-12-07T03:28:26;17.40;;;17.30;;
24787;SDS011;12883;52.662;5.196;2023-12-07T03:30:51;17.17;;;17.07;;
24787;SDS011;12883;52.662;5.196;2023-12-07T03:33:17;16.30;;;16.20;;
24787;SDS011;12883;52.662;5.196;2023-12-07T03:35:42;16.10;;;16.03;;
24787;SDS011;12883;52.662;5.196;2023-12-07T03:38:08;16.40;;;16.30;;
24787;SDS011;12883;52.662;5.196;2023-12-07T03:40:33;17.43;;;17.33;;
24787;SDS011;12883;52.662;5.196;2023-12-07T03:42:58;17.63;;;17.53;;
24787;SDS011;12883;52.662;5.196;2023-12-07T03:45:24;15.17;;;15.07;;
24787;SDS011;12883;52.662;5.196;2023-12-07T03:47:49;17.00;;;16.90;;
24787;SDS011;12883;52.662;5.196;2023-12-07T03:50:15;17.03;;;16.93;;
24787;SDS011;12883;52.662;5.196;2023-12-07T03:52:40;16.80;;;16.70;;
24787;SDS011;12883;52.662;5.196;2023-12-07T03:55:06;17.27;;;17.17;;
24787;SDS011;12883;52.662;5.196;2023-12-07T03:57:31;16.53;;;16.43;;
24787;SDS011;12883;52.662;5.196;2023-12-07T03:59:57;17.67;;;17.57;;
24787;SDS011;12883;52.662;5.196;2023-12-07T04:02:22;16.73;;;16.63;;
24787;SDS011;12883;52.662;5.196;2023-12-07T04:04:48;16.33;;;16.23;;
24787;SDS011;12883;52.662;5.196;2023-12-07T04:07:13;15.97;;;15.87;;
24787;SDS011;12883;52.662;5.196;2023-12-07T04:09:38;15.93;;;15.93;;
24787;SDS011;12883;52.662;5.196;2023-12-07T04:12:04;17.23;;;17.13;;
24787;SDS011;12883;52.662;5.196;2023-12-07T04:14:29;17.10;;;17.00;;
24787;SDS011;12883;52.662;5.196;2023-12-07T04:16:55;18.07;;;17.97;;
24787;SDS011;12883;52.662;5.196;2023-12-07T04:19:20;17.10;;;17.00;;
24787;SDS011;12883;52.662;5.196;2023-12-07T04:21:46;18.00;;;17.90;;
24787;SDS011;12883;52.662;5.196;2023-12-07T04:24:11;17.23;;;17.13;;
24787;SDS011;12883;52.662;5.196;2023-12-07T04:26:36;15.83;;;15.73;;
24787;SDS011;12883;52.662;5.196;2023-12-07T04:29:02;17.70;;;17.60;;
24787;SDS011;12883;52.662;5.196;2023-12-07T04:31:27;15.50;;;15.40;;
24787;SDS011;12883;52.662;5.196;2023-12-07T04:33:52;15.10;;;15.00;;
24787;SDS011;12883;52.662;5.196;2023-12-07T04:36:18;16.53;;;16.43;;
24787;SDS011;12883;52.662;5.196;2023-12-07T04:38:43;16.30;;;16.20;;
24787;SDS011;12883;52.662;5.196;2023-12-07T04:41:08;17.07;;;16.97;;
24787;SDS011;12883;52.662;5.196;2023-12-07T04:43:34;17.97;;;17.87;;
24787;SDS011;12883;52.662;5.196;2023-12-07T04:45:59;16.70;;;16.60;;
24787;SDS011;12883;52.662;5.196;2023-12-07T04:48:24;17.53;;;17.43;;
24787;SDS011;12883;52.662;5.196;2023-12-07T04:50:50;15.90;;;15.80;;
24787;SDS011;12883;52.662;5.196;2023-12-07T04:53:16;16.70;;;16.60;;
24787;SDS011;12883;52.662;5.196;2023-12-07T04:55:41;17.57;;;17.47;;
24787;SDS011;12883;52.662;5.196;2023-12-07T04:58:11;17.00;;;16.90;;
24787;SDS011;12883;52.662;5.196;2023-12-07T05:00:37;17.20;;;17.10;;
24787;SDS011;12883;52.662;5.196;2023-12-07T05:03:02;16.47;;;16.37;;
24787;SDS011;12883;52.662;5.196;2023-12-07T05:05:28;17.67;;;17.57;;
24787;SDS011;12883;52.662;5.196;2023-12-07T05:07:53;17.83;;;17.73;;
24787;SDS011;12883;52.662;5.196;2023-12-07T05:10:18;16.57;;;16.50;;
24787;SDS011;12883;52.662;5.196;2023-12-07T05:12:44;18.47;;;18.37;;
24787;SDS011;12883;52.662;5.196;2023-12-07T05:15:09;19.83;;;19.73;;
24787;SDS011;12883;52.662;5.196;2023-12-07T05:17:35;18.00;;;17.90;;
24787;SDS011;12883;52.662;5.196;2023-12-07T05:20:00;20.23;;;20.13;;
24787;SDS011;12883;52.662;5.196;2023-12-07T05:22:26;19.40;;;19.30;;
24787;SDS011;12883;52.662;5.196;2023-12-07T05:24:52;20.80;;;20.70;;
24787;SDS011;12883;52.662;5.196;2023-12-07T05:27:17;22.67;;;22.57;;
24787;SDS011;12883;52.662;5.196;2023-12-07T05:29:43;23.23;;;23.13;;
24787;SDS011;12883;52.662;5.196;2023-12-07T05:32:08;24.23;;;24.13;;
24787;SDS011;12883;52.662;5.196;2023-12-07T05:34:34;24.20;;;24.10;;
24787;SDS011;12883;52.662;5.196;2023-12-07T05:37:00;26.43;;;26.33;;
24787;SDS011;12883;52.662;5.196;2023-12-07T05:39:26;27.23;;;27.13;;
24787;SDS011;12883;52.662;5.196;2023-12-07T05:41:51;28.03;;;27.93;;
24787;SDS011;12883;52.662;5.196;2023-12-07T05:44:16;28.20;;;28.10;;
24787;SDS011;12883;52.662;5.196;2023-12-07T05:46:46;29.17;;;29.07;;
24787;SDS011;12883;52.662;5.196;2023-12-07T05:49:12;28.53;;;28.43;;
24787;SDS011;12883;52.662;5.196;2023-12-07T05:51:37;29.80;;;29.60;;
24787;SDS011;12883;52.662;5.196;2023-12-07T05:54:03;29.03;;;28.93;;
24787;SDS011;12883;52.662;5.196;2023-12-07T05:56:29;28.27;;;28.17;;
24787;SDS011;12883;52.662;5.196;2023-12-07T05:58:56;27.93;;;27.83;;
24787;SDS011;12883;52.662;5.196;2023-12-07T06:01:22;26.40;;;26.30;;
24787;SDS011;12883;52.662;5.196;2023-12-07T06:03:49;26.20;;;26.10;;
24787;SDS011;12883;52.662;5.196;2023-12-07T06:06:14;26.33;;;26.23;;
24787;SDS011;12883;52.662;5.196;2023-12-07T06:08:40;26.43;;;26.33;;
24787;SDS011;12883;52.662;5.196;2023-12-07T06:11:06;26.53;;;26.43;;
24787;SDS011;12883;52.662;5.196;2023-12-07T06:13:32;26.87;;;26.73;;
24787;SDS011;12883;52.662;5.196;2023-12-07T06:15:58;26.80;;;26.70;;
24787;SDS011;12883;52.662;5.196;2023-12-07T06:18:24;26.97;;;26.87;;
24787;SDS011;12883;52.662;5.196;2023-12-07T06:20:49;25.07;;;24.97;;
24787;SDS011;12883;52.662;5.196;2023-12-07T06:23:15;24.97;;;24.87;;
24787;SDS011;12883;52.662;5.196;2023-12-07T06:25:40;26.17;;;26.07;;
24787;SDS011;12883;52.662;5.196;2023-12-07T06:28:06;23.37;;;23.27;;
24787;SDS011;12883;52.662;5.196;2023-12-07T06:30:31;23.80;;;23.70;;
24787;SDS011;12883;52.662;5.196;2023-12-07T06:32:57;22.60;;;22.50;;
24787;SDS011;12883;52.662;5.196;2023-12-07T06:35:22;23.57;;;23.47;;
24787;SDS011;12883;52.662;5.196;2023-12-07T06:37:48;22.70;;;22.60;;
24787;SDS011;12883;52.662;5.196;2023-12-07T06:40:13;24.07;;;23.97;;
24787;SDS011;12883;52.662;5.196;2023-12-07T06:42:39;23.30;;;23.20;;
24787;SDS011;12883;52.662;5.196;2023-12-07T06:45:04;21.77;;;21.67;;
24787;SDS011;12883;52.662;5.196;2023-12-07T06:47:30;21.53;;;21.43;;
24787;SDS011;12883;52.662;5.196;2023-12-07T06:49:56;20.57;;;20.47;;
24787;SDS011;12883;52.662;5.196;2023-12-07T06:52:21;22.80;;;22.70;;
24787;SDS011;12883;52.662;5.196;2023-12-07T06:54:47;23.43;;;23.33;;
24787;SDS011;12883;52.662;5.196;2023-12-07T06:57:12;24.53;;;24.43;;
24787;SDS011;12883;52.662;5.196;2023-12-07T06:59:38;23.33;;;23.23;;
24787;SDS011;12883;52.662;5.196;2023-12-07T07:02:03;22.50;;;22.40;;
24787;SDS011;12883;52.662;5.196;2023-12-07T07:04:29;22.60;;;22.50;;
24787;SDS011;12883;52.662;5.196;2023-12-07T07:06:54;23.43;;;23.33;;
24787;SDS011;12883;52.662;5.196;2023-12-07T07:09:20;23.00;;;22.90;;
24787;SDS011;12883;52.662;5.196;2023-12-07T07:11:48;23.80;;;23.70;;
24787;SDS011;12883;52.662;5.196;2023-12-07T07:14:14;22.67;;;22.57;;
24787;SDS011;12883;52.662;5.196;2023-12-07T07:16:39;24.93;;;24.83;;
24787;SDS011;12883;52.662;5.196;2023-12-07T07:19:04;24.63;;;24.53;;
24787;SDS011;12883;52.662;5.196;2023-12-07T07:21:30;23.50;;;23.40;;
24787;SDS011;12883;52.662;5.196;2023-12-07T07:23:56;23.70;;;23.60;;
24787;SDS011;12883;52.662;5.196;2023-12-07T07:26:22;24.03;;;23.93;;
24787;SDS011;12883;52.662;5.196;2023-12-07T07:28:47;22.87;;;22.77;;
24787;SDS011;12883;52.662;5.196;2023-12-07T07:31:12;23.67;;;23.57;;
24787;SDS011;12883;52.662;5.196;2023-12-07T07:33:38;23.53;;;23.43;;
24787;SDS011;12883;52.662;5.196;2023-12-07T07:36:03;22.03;;;21.93;;
24787;SDS011;12883;52.662;5.196;2023-12-07T07:38:29;22.33;;;22.23;;
24787;SDS011;12883;52.662;5.196;2023-12-07T07:40:54;21.77;;;21.67;;
24787;SDS011;12883;52.662;5.196;2023-12-07T07:43:20;22.33;;;22.23;;
24787;SDS011;12883;52.662;5.196;2023-12-07T07:45:45;21.10;;;21.00;;
24787;SDS011;12883;52.662;5.196;2023-12-07T07:48:11;21.90;;;21.80;;
24787;SDS011;12883;52.662;5.196;2023-12-07T07:50:37;21.27;;;21.17;;
24787;SDS011;12883;52.662;5.196;2023-12-07T07:53:02;21.60;;;21.50;;
24787;SDS011;12883;52.662;5.196;2023-12-07T07:55:28;21.63;;;21.53;;
24787;SDS011;12883;52.662;5.196;2023-12-07T07:57:54;22.43;;;22.33;;
24787;SDS011;12883;52.662;5.196;2023-12-07T08:00:20;19.90;;;19.80;;
24787;SDS011;12883;52.662;5.196;2023-12-07T08:02:46;21.83;;;21.73;;
24787;SDS011;12883;52.662;5.196;2023-12-07T08:05:11;22.23;;;22.13;;
24787;SDS011;12883;52.662;5.196;2023-12-07T08:07:37;21.37;;;21.27;;
24787;SDS011;12883;52.662;5.196;2023-12-07T08:10:04;21.80;;;21.70;;
24787;SDS011;12883;52.662;5.196;2023-12-07T08:12:30;22.67;;;22.57;;
24787;SDS011;12883;52.662;5.196;2023-12-07T08:14:56;22.07;;;21.97;;
24787;SDS011;12883;52.662;5.196;2023-12-07T08:17:21;24.03;;;23.93;;
24787;SDS011;12883;52.662;5.196;2023-12-07T08:19:46;23.57;;;23.47;;
24787;SDS011;12883;52.662;5.196;2023-12-07T08:22:12;23.17;;;23.07;;
24787;SDS011;12883;52.662;5.196;2023-12-07T08:24:38;23.77;;;23.67;;
24787;SDS011;12883;52.662;5.196;2023-12-07T08:27:04;25.63;;;25.53;;
24787;SDS011;12883;52.662;5.196;2023-12-07T08:29:30;27.93;;;27.43;;
24787;SDS011;12883;52.662;5.196;2023-12-07T08:31:55;25.50;;;25.03;;
24787;SDS011;12883;52.662;5.196;2023-12-07T08:34:20;27.00;;;26.50;;
24787;SDS011;12883;52.662;5.196;2023-12-07T08:36:46;23.77;;;23.37;;
24787;SDS011;12883;52.662;5.196;2023-12-07T08:39:11;24.90;;;24.47;;
24787;SDS011;12883;52.662;5.196;2023-12-07T08:41:36;25.90;;;25.43;;
24787;SDS011;12883;52.662;5.196;2023-12-07T08:44:02;24.47;;;24.17;;
24787;SDS011;12883;52.662;5.196;2023-12-07T08:46:28;26.47;;;26.00;;
24787;SDS011;12883;52.662;5.196;2023-12-07T08:48:54;25.20;;;24.77;;
24787;SDS011;12883;52.662;5.196;2023-12-07T08:51:19;28.00;;;27.30;;
24787;SDS011;12883;52.662;5.196;2023-12-07T08:53:44;26.30;;;25.70;;
24787;SDS011;12883;52.662;5.196;2023-12-07T08:56:10;26.50;;;25.97;;
24787;SDS011;12883;52.662;5.196;2023-12-07T08:58:37;27.10;;;26.63;;
24787;SDS011;12883;52.662;5.196;2023-12-07T09:01:03;29.53;;;28.73;;
24787;SDS011;12883;52.662;5.196;2023-12-07T09:03:30;26.00;;;25.50;;
24787;SDS011;12883;52.662;5.196;2023-12-07T09:05:57;26.93;;;26.33;;
24787;SDS011;12883;52.662;5.196;2023-12-07T09:08:22;27.33;;;26.83;;
24787;SDS011;12883;52.662;5.196;2023-12-07T09:10:48;29.33;;;28.77;;
24787;SDS011;12883;52.662;5.196;2023-12-07T09:13:16;25.67;;;25.30;;
24787;SDS011;12883;52.662;5.196;2023-12-07T09:15:44;26.53;;;26.13;;
24787;SDS011;12883;52.662;5.196;2023-12-07T09:18:10;24.40;;;24.00;;
24787;SDS011;12883;52.662;5.196;2023-12-07T09:20:38;26.87;;;26.27;;
24787;SDS011;12883;52.662;5.196;2023-12-07T09:23:10;28.00;;;27.50;;
24787;SDS011;12883;52.662;5.196;2023-12-07T09:25:37;28.67;;;28.07;;
24787;SDS011;12883;52.662;5.196;2023-12-07T09:28:03;29.33;;;28.57;;
24787;SDS011;12883;52.662;5.196;2023-12-07T09:30:29;29.27;;;28.67;;
24787;SDS011;12883;52.662;5.196;2023-12-07T09:32:54;26.83;;;26.33;;
24787;SDS011;12883;52.662;5.196;2023-12-07T09:35:20;27.33;;;26.93;;
24787;SDS011;12883;52.662;5.196;2023-12-07T09:37:45;28.23;;;27.83;;
24787;SDS011;12883;52.662;5.196;2023-12-07T09:40:14;30.03;;;29.33;;
24787;SDS011;12883;52.662;5.196;2023-12-07T09:42:42;31.07;;;30.30;;
24787;SDS011;12883;52.662;5.196;2023-12-07T09:45:08;29.30;;;28.70;;
24787;SDS011;12883;52.662;5.196;2023-12-07T09:47:33;30.60;;;30.00;;
24787;SDS011;12883;52.662;5.196;2023-12-07T09:49:59;30.10;;;29.60;;
24787;SDS011;12883;52.662;5.196;2023-12-07T09:52:26;30.57;;;29.97;;
24787;SDS011;12883;52.662;5.196;2023-12-07T09:54:52;32.53;;;31.83;;
24787;SDS011;12883;52.662;5.196;2023-12-07T09:57:19;32.33;;;31.63;;
24787;SDS011;12883;52.662;5.196;2023-12-07T09:59:46;32.80;;;32.33;;
24787;SDS011;12883;52.662;5.196;2023-12-07T10:02:11;33.27;;;32.77;;
24787;SDS011;12883;52.662;5.196;2023-12-07T10:04:38;33.67;;;33.07;;
24787;SDS011;12883;52.662;5.196;2023-12-07T10:07:04;35.67;;;35.27;;
24787;SDS011;12883;52.662;5.196;2023-12-07T10:09:33;35.63;;;35.13;;
24787;SDS011;12883;52.662;5.196;2023-12-07T10:12:03;36.27;;;35.77;;
24787;SDS011;12883;52.662;5.196;2023-12-07T10:14:29;35.40;;;35.00;;
24787;SDS011;12883;52.662;5.196;2023-12-07T10:16:55;36.30;;;35.90;;
24787;SDS011;12883;52.662;5.196;2023-12-07T10:19:21;35.43;;;34.93;;
24787;SDS011;12883;52.662;5.196;2023-12-07T10:21:47;36.23;;;35.73;;
24787;SDS011;12883;52.662;5.196;2023-12-07T10:24:15;36.30;;;35.93;;
24787;SDS011;12883;52.662;5.196;2023-12-07T10:26:41;38.63;;;38.13;;
24787;SDS011;12883;52.662;5.196;2023-12-07T10:29:08;38.20;;;37.70;;
24787;SDS011;12883;52.662;5.196;2023-12-07T10:31:34;39.43;;;38.83;;
24787;SDS011;12883;52.662;5.196;2023-12-07T10:34:01;40.80;;;40.30;;
24787;SDS011;12883;52.662;5.196;2023-12-07T10:36:27;42.57;;;41.90;;
24787;SDS011;12883;52.662;5.196;2023-12-07T10:38:52;42.40;;;41.80;;
24787;SDS011;12883;52.662;5.196;2023-12-07T10:41:19;42.13;;;41.63;;
24787;SDS011;12883;52.662;5.196;2023-12-07T10:43:47;42.40;;;41.90;;
24787;SDS011;12883;52.662;5.196;2023-12-07T10:46:19;36.80;;;36.40;;
24787;SDS011;12883;52.662;5.196;2023-12-07T10:48:45;37.80;;;37.13;;
24787;SDS011;12883;52.662;5.196;2023-12-07T10:51:22;40.37;;;39.77;;
24787;SDS011;12883;52.662;5.196;2023-12-07T10:53:55;35.40;;;34.80;;
24787;SDS011;12883;52.662;5.196;2023-12-07T10:56:33;33.77;;;33.27;;
24787;SDS011;12883;52.662;5.196;2023-12-07T10:59:06;35.67;;;35.07;;
24787;SDS011;12883;52.662;5.196;2023-12-07T11:01:35;36.13;;;35.63;;
24787;SDS011;12883;52.662;5.196;2023-12-07T11:04:03;32.73;;;32.33;;
24787;SDS011;12883;52.662;5.196;2023-12-07T11:06:30;31.33;;;31.03;;
24787;SDS011;12883;52.662;5.196;2023-12-07T11:09:00;32.27;;;31.77;;
24787;SDS011;12883;52.662;5.196;2023-12-07T11:11:31;30.70;;;30.40;;
24787;SDS011;12883;52.662;5.196;2023-12-07T11:14:05;30.50;;;30.10;;
24787;SDS011;12883;52.662;5.196;2023-12-07T11:16:35;31.17;;;30.67;;
24787;SDS011;12883;52.662;5.196;2023-12-07T11:19:02;29.97;;;29.57;;
24787;SDS011;12883;52.662;5.196;2023-12-07T11:21:29;31.07;;;30.87;;
24787;SDS011;12883;52.662;5.196;2023-12-07T11:23:55;30.50;;;30.23;;
24787;SDS011;12883;52.662;5.196;2023-12-07T11:26:24;32.33;;;32.03;;
24787;SDS011;12883;52.662;5.196;2023-12-07T11:28:50;32.40;;;32.03;;
24787;SDS011;12883;52.662;5.196;2023-12-07T11:31:16;33.00;;;32.53;;
24787;SDS011;12883;52.662;5.196;2023-12-07T11:33:42;32.03;;;31.73;;
24787;SDS011;12883;52.662;5.196;2023-12-07T11:36:08;32.10;;;31.80;;
24787;SDS011;12883;52.662;5.196;2023-12-07T11:38:38;32.77;;;32.47;;
24787;SDS011;12883;52.662;5.196;2023-12-07T11:41:23;32.43;;;32.17;;
24787;SDS011;12883;52.662;5.196;2023-12-07T11:43:49;31.47;;;31.17;;
24787;SDS011;12883;52.662;5.196;2023-12-07T11:46:18;32.03;;;31.73;;
24787;SDS011;12883;52.662;5.196;2023-12-07T11:48:47;32.33;;;32.03;;
24787;SDS011;12883;52.662;5.196;2023-12-07T11:51:13;30.80;;;30.50;;
24787;SDS011;12883;52.662;5.196;2023-12-07T11:53:38;30.80;;;30.60;;
24787;SDS011;12883;52.662;5.196;2023-12-07T11:56:04;30.83;;;30.53;;
24787;SDS011;12883;52.662;5.196;2023-12-07T11:58:32;30.10;;;29.90;;
24787;SDS011;12883;52.662;5.196;2023-12-07T12:00:58;30.07;;;29.87;;
24787;SDS011;12883;52.662;5.196;2023-12-07T12:03:25;30.57;;;30.27;;
24787;SDS011;12883;52.662;5.196;2023-12-07T12:05:51;30.47;;;30.17;;
24787;SDS011;12883;52.662;5.196;2023-12-07T12:08:17;30.87;;;30.67;;
24787;SDS011;12883;52.662;5.196;2023-12-07T12:10:44;31.97;;;31.67;;
24787;SDS011;12883;52.662;5.196;2023-12-07T12:13:10;31.10;;;30.90;;
24787;SDS011;12883;52.662;5.196;2023-12-07T12:15:37;30.40;;;30.10;;
24787;SDS011;12883;52.662;5.196;2023-12-07T12:18:04;30.03;;;29.80;;
24787;SDS011;12883;52.662;5.196;2023-12-07T12:20:30;29.13;;;28.83;;
24787;SDS011;12883;52.662;5.196;2023-12-07T12:22:57;29.10;;;28.83;;
24787;SDS011;12883;52.662;5.196;2023-12-07T12:25:23;29.83;;;29.63;;
24787;SDS011;12883;52.662;5.196;2023-12-07T12:27:54;30.60;;;30.30;;
24787;SDS011;12883;52.662;5.196;2023-12-07T12:30:21;31.53;;;31.33;;
24787;SDS011;12883;52.662;5.196;2023-12-07T12:32:50;30.97;;;30.77;;
24787;SDS011;12883;52.662;5.196;2023-12-07T12:35:16;31.80;;;31.50;;
24787;SDS011;12883;52.662;5.196;2023-12-07T12:37:42;27.17;;;26.87;;
24787;SDS011;12883;52.662;5.196;2023-12-07T12:40:10;27.20;;;27.00;;
24787;SDS011;12883;52.662;5.196;2023-12-07T12:42:36;25.40;;;25.20;;
24787;SDS011;12883;52.662;5.196;2023-12-07T12:45:05;25.00;;;24.80;;
24787;SDS011;12883;52.662;5.196;2023-12-07T12:47:33;25.60;;;25.40;;
24787;SDS011;12883;52.662;5.196;2023-12-07T12:50:00;24.90;;;24.80;;
24787;SDS011;12883;52.662;5.196;2023-12-07T12:52:26;27.50;;;27.30;;
24787;SDS011;12883;52.662;5.196;2023-12-07T12:54:55;26.97;;;26.77;;
24787;SDS011;12883;52.662;5.196;2023-12-07T12:57:20;26.63;;;26.47;;
24787;SDS011;12883;52.662;5.196;2023-12-07T12:59:46;25.77;;;25.67;;
24787;SDS011;12883;52.662;5.196;2023-12-07T13:02:13;25.20;;;25.07;;
24787;SDS011;12883;52.662;5.196;2023-12-07T13:04:38;25.87;;;25.77;;
24787;SDS011;12883;52.662;5.196;2023-12-07T13:07:05;23.40;;;23.30;;
24787;SDS011;12883;52.662;5.196;2023-12-07T13:09:30;24.60;;;24.50;;
24787;SDS011;12883;52.662;5.196;2023-12-07T13:11:56;24.90;;;24.70;;
24787;SDS011;12883;52.662;5.196;2023-12-07T13:14:22;26.70;;;26.50;;
24787;SDS011;12883;52.662;5.196;2023-12-07T13:16:48;27.93;;;27.73;;
24787;SDS011;12883;52.662;5.196;2023-12-07T13:19:13;31.47;;;31.27;;
24787;SDS011;12883;52.662;5.196;2023-12-07T13:21:38;32.17;;;31.97;;
24787;SDS011;12883;52.662;5.196;2023-12-07T13:24:04;33.53;;;33.33;;
24787;SDS011;12883;52.662;5.196;2023-12-07T13:26:30;30.67;;;30.47;;
24787;SDS011;12883;52.662;5.196;2023-12-07T13:28:56;26.17;;;25.97;;
24787;SDS011;12883;52.662;5.196;2023-12-07T13:31:21;26.83;;;26.63;;
24787;SDS011;12883;52.662;5.196;2023-12-07T13:33:47;24.03;;;23.93;;
24787;SDS011;12883;52.662;5.196;2023-12-07T13:36:13;25.33;;;25.13;;
24787;SDS011;12883;52.662;5.196;2023-12-07T13:38:39;24.67;;;24.57;;
24787;SDS011;12883;52.662;5.196;2023-12-07T13:41:05;24.53;;;24.33;;
24787;SDS011;12883;52.662;5.196;2023-12-07T13:43:31;24.17;;;24.07;;
24787;SDS011;12883;52.662;5.196;2023-12-07T13:45:58;24.57;;;24.47;;
24787;SDS011;12883;52.662;5.196;2023-12-07T13:48:24;24.37;;;24.17;;
24787;SDS011;12883;52.662;5.196;2023-12-07T13:50:49;25.13;;;24.93;;
24787;SDS011;12883;52.662;5.196;2023-12-07T13:53:15;26.60;;;26.40;;
24787;SDS011;12883;52.662;5.196;2023-12-07T13:55:40;27.13;;;26.93;;
24787;SDS011;12883;52.662;5.196;2023-12-07T13:58:06;26.57;;;26.37;;
24787;SDS011;12883;52.662;5.196;2023-12-07T14:00:37;26.63;;;26.43;;
24787;SDS011;12883;52.662;5.196;2023-12-07T14:03:03;27.63;;;27.43;;
24787;SDS011;12883;52.662;5.196;2023-12-07T14:05:29;30.67;;;30.47;;
24787;SDS011;12883;52.662;5.196;2023-12-07T14:07:55;32.37;;;32.07;;
24787;SDS011;12883;52.662;5.196;2023-12-07T14:10:20;31.17;;;30.97;;
24787;SDS011;12883;52.662;5.196;2023-12-07T14:12:46;30.27;;;30.07;;
24787;SDS011;12883;52.662;5.196;2023-12-07T14:15:11;33.00;;;32.73;;
24787;SDS011;12883;52.662;5.196;2023-12-07T14:17:36;31.37;;;31.17;;